Skip Navigation Links Skip Navigation Links

Current Weather

Los Angeles Intl, Los Angeles

For information only: do not use for flight planning or navigation.
Latest weather
Observation time Tuesday, October 19, 2021 1:53 AM PDT
Local time Tuesday, October 19, 2021 2:10 AM PDT
Flight conditions Visual Meteorological Conditions
Winds
Wind direction East (100°)
Wind speed 7 mph
Visibility 10 mi.
Sky condition
Ceiling unlimited
Cloud layer few clouds 5,000 ft.
Temperature 56°F
Dewpoint 51°F
Altimeter 30.00 in.Hg
Pressure change last 3 hours0.00 in.Hg
Pressure rising more quickly
Derived measurements
Relative humidity 84%
Density altitude 14 ft.
Sea-level pressure 29.99 in.Hg
Remarks
System requires maintenance.
Automated weather observing station with precipitation discriminator.
METAR KLAX 190853Z 10006KT 10SM FEW050 13/11 A3000 RMK AO2 SLP156 T01330106 53000 $

Settings

Location code

InnerDrive.Weather 4.0.6770.0 Release CLR 4.0.30319.42000
Copyright ©2018 Inner Drive Technology. All rights reserved. Portions Copyright ©1986-2018 David Braverman.

Find weather

Site navigation


Skip Navigation Links

Place info

Page info

PayPal - The safer, easier way to pay online!

Return home.

Copyright ©2021 Inner Drive Technology. Purveyors of fine, hand-crafted computer software. Page printed 2021-10-19T09:10:28 UTC.